createdAt,value
2017-11-14T00:01:00.366Z,16.80
2017-11-14T00:03:28.670Z,15.90
2017-11-14T00:05:56.198Z,16.97
2017-11-14T00:08:24.495Z,15.30
2017-11-14T00:10:52.062Z,17.03
2017-11-14T00:13:19.598Z,11.90
2017-11-14T00:15:47.993Z,18.07
2017-11-14T00:18:15.500Z,14.50
2017-11-14T00:20:43.024Z,16.70
2017-11-14T00:23:10.545Z,16.33
2017-11-14T00:25:38.837Z,16.57
2017-11-14T00:28:06.406Z,15.83
2017-11-14T00:30:33.925Z,16.10
2017-11-14T00:33:01.449Z,13.30
2017-11-14T00:35:29.017Z,15.37
2017-11-14T00:37:56.518Z,14.53
2017-11-14T00:40:24.793Z,16.47
2017-11-14T00:42:53.080Z,19.17
2017-11-14T00:45:20.657Z,16.17
2017-11-14T00:47:48.167Z,14.77
2017-11-14T00:50:15.721Z,15.73
2017-11-14T00:52:43.221Z,17.20
2017-11-14T00:55:10.726Z,13.90
2017-11-14T00:57:38.246Z,16.20
2017-11-14T01:00:05.757Z,16.60
2017-11-14T01:02:34.036Z,17.60
2017-11-14T01:05:02.321Z,14.97
2017-11-14T01:07:29.904Z,15.50
2017-11-14T01:12:31.262Z,16.90
2017-11-14T01:14:58.931Z,13.70
2017-11-14T01:17:26.484Z,17.13
2017-11-14T01:19:53.989Z,17.13
2017-11-14T01:22:21.513Z,17.90
2017-11-14T01:24:49.062Z,13.67
2017-11-14T01:27:16.613Z,18.10
2017-11-14T01:29:44.154Z,16.27
2017-11-14T01:32:12.460Z,16.53
2017-11-14T01:34:40.006Z,15.03
2017-11-14T01:37:07.514Z,17.77
2017-11-14T01:39:35.047Z,15.40
2017-11-14T01:42:02.560Z,16.07
2017-11-14T01:44:30.955Z,15.13
2017-11-14T01:46:58.534Z,16.17
2017-11-14T01:49:26.053Z,15.07
2017-11-14T01:51:54.374Z,16.07
2017-11-14T01:54:21.932Z,17.50
2017-11-14T01:56:49.468Z,16.07
2017-11-14T01:59:16.985Z,17.03
2017-11-14T02:01:44.507Z,17.20
2017-11-14T02:04:12.047Z,17.47
2017-11-14T02:06:40.370Z,16.43
2017-11-14T02:09:08.246Z,17.23
2017-11-14T02:11:35.767Z,17.27
2017-11-14T02:14:03.412Z,16.77
2017-11-14T02:16:30.949Z,17.00
2017-11-14T02:18:58.460Z,15.97
2017-11-14T02:21:26.064Z,18.03
2017-11-14T02:23:53.581Z,15.90
2017-11-14T02:26:21.080Z,16.77
2017-11-14T02:28:48.654Z,16.93
2017-11-14T02:31:16.158Z,17.97
2017-11-14T02:33:43.753Z,16.37
2017-11-14T02:36:12.018Z,18.17
2017-11-14T02:38:40.326Z,16.43
2017-11-14T02:41:07.837Z,18.23
2017-11-14T02:43:36.105Z,17.17
2017-11-14T02:46:03.631Z,18.07
2017-11-14T02:48:31.157Z,13.93
2017-11-14T02:50:58.827Z,18.43
2017-11-14T02:53:26.372Z,14.67
2017-11-14T02:55:53.887Z,19.80
2017-11-14T02:58:21.416Z,17.67
2017-11-14T03:00:48.925Z,18.27
2017-11-14T03:03:17.226Z,17.80
2017-11-14T03:05:44.737Z,16.30
2017-11-14T03:08:12.254Z,16.63
2017-11-14T03:10:39.794Z,14.43
2017-11-14T03:13:07.314Z,16.33
2017-11-14T03:15:34.817Z,19.10
2017-11-14T03:18:02.358Z,18.47
2017-11-14T03:20:30.649Z,18.17
2017-11-14T03:22:58.210Z,20.03
2017-11-14T03:25:25.745Z,20.63
2017-11-14T03:27:54.029Z,18.30
2017-11-14T03:30:21.526Z,19.30
2017-11-14T03:32:49.054Z,18.53
2017-11-14T03:35:16.716Z,17.80
2017-11-14T03:37:44.243Z,20.10
2017-11-14T03:40:11.750Z,19.10
2017-11-14T03:42:39.277Z,19.77
2017-11-14T03:45:06.782Z,19.70
2017-11-14T03:47:34.278Z,16.23
2017-11-14T03:50:02.585Z,14.80
2017-11-14T03:52:30.089Z,13.87
2017-11-14T03:54:57.845Z,14.13
2017-11-14T03:57:25.356Z,15.17
2017-11-14T03:59:52.857Z,16.90
2017-11-14T04:02:20.383Z,16.40
2017-11-14T04:04:47.947Z,15.33
2017-11-14T04:07:15.497Z,16.50
2017-11-14T04:09:43.007Z,14.83
2017-11-14T04:12:10.538Z,14.20
2017-11-14T04:14:38.053Z,15.07
2017-11-14T04:17:05.587Z,14.40
2017-11-14T04:19:33.853Z,13.87
2017-11-14T04:22:01.451Z,16.50
2017-11-14T04:24:29.012Z,17.87
2017-11-14T04:26:56.523Z,19.03
2017-11-14T04:29:24.050Z,18.47
2017-11-14T04:31:51.562Z,14.60
2017-11-14T04:34:19.852Z,18.33
2017-11-14T04:36:47.364Z,16.40
2017-11-14T04:39:14.973Z,12.53
2017-11-14T04:41:42.504Z,14.90
2017-11-14T04:44:10.765Z,12.60
2017-11-14T04:46:38.273Z,14.37
2017-11-14T04:49:05.795Z,13.97
2017-11-14T04:51:34.058Z,15.70
2017-11-14T04:54:01.593Z,17.17
2017-11-14T04:56:29.118Z,13.17
2017-11-14T04:58:56.645Z,14.73
2017-11-14T05:01:24.944Z,14.17
2017-11-14T05:03:52.629Z,14.10
2017-11-14T05:06:20.157Z,16.70
2017-11-14T05:08:47.694Z,16.40
2017-11-14T05:11:15.965Z,16.27
2017-11-14T05:13:43.558Z,15.80
2017-11-14T05:16:11.092Z,13.07
2017-11-14T05:18:39.368Z,15.47
2017-11-14T05:21:07.697Z,15.17
2017-11-14T05:23:35.212Z,16.70
2017-11-14T05:26:03.507Z,14.63
2017-11-14T05:28:31.037Z,16.07
2017-11-14T05:30:59.311Z,13.23
2017-11-14T05:33:27.609Z,13.50
2017-11-14T05:35:55.114Z,14.10
2017-11-14T05:38:22.658Z,13.13
2017-11-14T05:40:50.154Z,16.30
2017-11-14T05:43:17.692Z,15.13
2017-11-14T05:45:45.186Z,15.37
2017-11-14T05:48:13.451Z,17.27
2017-11-14T05:50:41.778Z,14.83
2017-11-14T05:53:09.318Z,15.60
2017-11-14T05:55:36.911Z,15.63
2017-11-14T05:58:04.405Z,14.30
2017-11-14T06:00:32.713Z,16.20
2017-11-14T06:03:00.222Z,14.40
2017-11-14T06:05:29.259Z,14.57
2017-11-14T06:07:56.773Z,14.97
2017-11-14T06:10:24.301Z,13.10
2017-11-14T06:12:51.805Z,12.93
2017-11-14T06:15:19.391Z,13.03
2017-11-14T06:17:46.926Z,13.10
2017-11-14T06:20:15.198Z,14.50
2017-11-14T06:22:42.721Z,15.23
2017-11-14T06:25:10.213Z,13.23
2017-11-14T06:27:38.500Z,14.93
2017-11-14T06:30:06.014Z,15.07
2017-11-14T06:32:33.626Z,15.10
2017-11-14T06:35:01.153Z,13.27
2017-11-14T06:37:29.491Z,14.10
2017-11-14T06:39:57.010Z,14.60
2017-11-14T06:42:24.524Z,16.13
2017-11-14T06:44:52.043Z,12.97
2017-11-14T06:47:19.580Z,15.00
2017-11-14T06:49:47.149Z,13.50
2017-11-14T06:52:14.649Z,13.50
2017-11-14T06:54:42.181Z,13.47
2017-11-14T06:57:09.702Z,13.10
2017-11-14T06:59:38.183Z,11.43
2017-11-14T07:02:06.569Z,12.37
2017-11-14T07:04:34.065Z,10.50
2017-11-14T07:07:01.613Z,11.90
2017-11-14T07:09:29.140Z,11.20
2017-11-14T07:11:57.425Z,12.40
2017-11-14T07:14:24.958Z,12.40
2017-11-14T07:16:53.243Z,11.47
2017-11-14T07:19:21.607Z,12.10
2017-11-14T07:21:49.879Z,10.83
2017-11-14T07:24:18.166Z,11.50
2017-11-14T07:26:46.453Z,9.80
2017-11-14T07:29:13.973Z,12.27
2017-11-14T07:31:41.502Z,10.80
2017-11-14T07:34:09.002Z,12.73
2017-11-14T07:36:36.589Z,12.93
2017-11-14T07:39:04.890Z,12.57
2017-11-14T07:41:32.408Z,13.07
2017-11-14T07:44:00.678Z,8.90
2017-11-14T07:46:28.964Z,8.80
2017-11-14T07:48:57.226Z,7.93
2017-11-14T07:51:25.542Z,8.90
2017-11-14T07:53:53.053Z,11.30
2017-11-14T07:56:21.330Z,11.43
2017-11-14T07:58:48.863Z,9.90
2017-11-14T08:01:16.383Z,11.00
2017-11-14T08:03:43.904Z,10.77
2017-11-14T08:06:12.180Z,10.33
2017-11-14T08:08:40.494Z,11.47
2017-11-14T08:11:08.002Z,10.40
2017-11-14T08:13:35.624Z,11.07
2017-11-14T08:16:03.503Z,10.63
2017-11-14T08:18:30.998Z,11.70
2017-11-14T08:20:59.316Z,9.33
2017-11-14T08:23:26.863Z,12.90
2017-11-14T08:25:54.418Z,9.73
2017-11-14T08:28:21.942Z,11.23
2017-11-14T08:30:50.265Z,11.80
2017-11-14T08:33:17.790Z,13.23
2017-11-14T08:35:46.085Z,12.20
2017-11-14T08:38:13.618Z,11.07
2017-11-14T08:40:41.899Z,8.67
2017-11-14T08:43:10.265Z,9.97
2017-11-14T08:45:37.807Z,11.23
2017-11-14T08:48:05.370Z,9.70
2017-11-14T08:50:33.697Z,10.70
2017-11-14T08:53:01.215Z,11.63
2017-11-14T08:55:28.720Z,12.37
2017-11-14T08:57:56.245Z,15.03
2017-11-14T09:00:24.551Z,13.07
2017-11-14T09:02:52.074Z,13.37
2017-11-14T09:05:20.395Z,14.53
2017-11-14T09:07:47.913Z,14.10
2017-11-14T09:10:16.181Z,13.17
2017-11-14T09:12:44.592Z,14.90
2017-11-14T09:15:12.100Z,14.33
2017-11-14T09:17:39.654Z,12.60
2017-11-14T09:20:07.157Z,12.60
2017-11-14T09:22:34.723Z,13.07
2017-11-14T09:25:02.262Z,12.90
2017-11-14T09:27:29.858Z,12.53
2017-11-14T09:29:57.391Z,14.43
2017-11-14T09:32:24.914Z,12.10
2017-11-14T09:34:52.453Z,12.20
2017-11-14T09:37:19.967Z,12.33
2017-11-14T09:39:47.471Z,10.73
2017-11-14T09:42:15.086Z,13.70
2017-11-14T09:44:42.645Z,13.33
2017-11-14T09:47:10.180Z,12.40
2017-11-14T09:49:38.454Z,11.80
2017-11-14T09:52:06.755Z,11.23
2017-11-14T09:54:34.314Z,13.77
2017-11-14T09:57:01.862Z,13.00
2017-11-14T09:59:29.426Z,12.90
2017-11-14T10:01:56.950Z,14.13
2017-11-14T10:04:25.217Z,13.17
2017-11-14T10:06:53.519Z,12.63
2017-11-14T10:09:21.088Z,12.40
2017-11-14T10:11:48.657Z,10.10
2017-11-14T10:14:16.213Z,13.27
2017-11-14T10:16:43.764Z,12.57
2017-11-14T10:19:11.338Z,12.23
2017-11-14T10:21:38.843Z,12.33
2017-11-14T10:24:07.179Z,12.27
2017-11-14T10:26:34.709Z,10.90
2017-11-14T10:29:02.243Z,11.00
2017-11-14T10:31:30.550Z,11.23
2017-11-14T10:33:58.064Z,10.17
2017-11-14T10:36:25.598Z,9.57
2017-11-14T10:38:53.151Z,11.80
2017-11-14T10:41:20.686Z,10.30
2017-11-14T10:43:48.178Z,9.17
2017-11-14T10:46:15.701Z,9.60
2017-11-14T10:48:43.236Z,9.40
2017-11-14T10:51:11.503Z,10.50
2017-11-14T10:53:39.811Z,8.77
2017-11-14T10:56:07.310Z,10.13
2017-11-14T10:58:34.926Z,8.97
2017-11-14T11:01:02.425Z,9.87
2017-11-14T11:03:29.954Z,8.97
2017-11-14T11:05:57.470Z,8.97
2017-11-14T11:08:25.733Z,9.20
2017-11-14T11:10:53.336Z,9.33
2017-11-14T11:13:20.846Z,9.97
2017-11-14T11:15:49.163Z,10.03
2017-11-14T11:18:16.679Z,9.20
2017-11-14T11:20:45.811Z,9.67
2017-11-14T11:23:13.320Z,9.33
2017-11-14T11:25:40.853Z,10.83
2017-11-14T11:28:08.393Z,12.00
2017-11-14T11:30:35.923Z,13.50
2017-11-14T11:33:04.322Z,12.10
2017-11-14T11:35:31.880Z,10.07
2017-11-14T11:37:59.443Z,10.07
2017-11-14T11:40:27.002Z,10.50
2017-11-14T11:42:54.516Z,9.30
2017-11-14T11:45:22.057Z,10.03
2017-11-14T11:47:50.354Z,10.23
2017-11-14T11:50:17.870Z,9.57
2017-11-14T11:52:45.406Z,11.30
2017-11-14T11:55:12.914Z,9.20
2017-11-14T11:57:40.441Z,8.73
2017-11-14T12:00:07.971Z,9.23
2017-11-14T12:02:35.481Z,9.20
2017-11-14T12:05:03.110Z,9.17
2017-11-14T12:07:30.605Z,9.43
2017-11-14T12:09:58.143Z,9.80
2017-11-14T12:12:25.717Z,11.47
2017-11-14T12:14:53.257Z,10.53
2017-11-14T12:17:20.800Z,11.10
2017-11-14T12:19:48.332Z,9.20
2017-11-14T12:22:15.892Z,10.20
2017-11-14T12:24:43.421Z,9.80
2017-11-14T12:27:10.930Z,10.53
2017-11-14T12:29:38.437Z,10.73
2017-11-14T12:32:06.039Z,10.13
2017-11-14T12:34:33.597Z,10.70
2017-11-14T12:37:01.126Z,10.03
2017-11-14T12:39:29.403Z,10.43
2017-11-14T12:41:57.712Z,11.50
2017-11-14T12:44:25.213Z,9.90
2017-11-14T12:46:52.830Z,10.97
2017-11-14T12:49:20.351Z,10.77
2017-11-14T12:51:48.617Z,11.73
2017-11-14T12:54:16.942Z,9.30
2017-11-14T12:56:44.466Z,11.77
2017-11-14T12:59:12.742Z,10.87
2017-11-14T13:01:41.034Z,11.17
2017-11-14T13:04:08.598Z,11.20
2017-11-14T13:06:36.133Z,10.50
2017-11-14T13:09:04.749Z,10.30
2017-11-14T13:11:32.287Z,11.33
2017-11-14T13:14:00.573Z,11.47
2017-11-14T13:16:28.084Z,12.30
2017-11-14T13:18:55.605Z,11.07
2017-11-14T13:21:23.151Z,13.10
2017-11-14T13:23:50.666Z,10.43
2017-11-14T13:26:18.971Z,10.83
2017-11-14T13:28:46.496Z,11.13
2017-11-14T13:31:14.785Z,11.30
2017-11-14T13:33:43.078Z,11.73
2017-11-14T13:36:10.582Z,11.93
2017-11-14T13:38:38.118Z,12.33
2017-11-14T13:41:05.657Z,12.47
2017-11-14T13:43:33.162Z,11.80
2017-11-14T13:46:00.712Z,11.37
2017-11-14T13:48:28.255Z,10.73
2017-11-14T13:50:55.806Z,12.10
2017-11-14T13:53:23.303Z,11.90
2017-11-14T13:55:51.587Z,9.10
2017-11-14T13:58:19.138Z,10.93
2017-11-14T14:00:46.651Z,11.30
2017-11-14T14:03:14.194Z,11.57
2017-11-14T14:05:41.693Z,12.53
2017-11-14T14:08:09.222Z,13.07
2017-11-14T14:10:36.731Z,10.13
2017-11-14T14:13:05.036Z,11.03
2017-11-14T14:15:32.550Z,12.03
2017-11-14T14:18:00.586Z,11.90
2017-11-14T14:20:28.452Z,12.73
2017-11-14T14:22:56.522Z,11.10
2017-11-14T14:25:24.490Z,12.63
2017-11-14T14:27:52.458Z,10.87
2017-11-14T14:30:21.249Z,13.20
2017-11-14T14:32:49.111Z,11.43
2017-11-14T14:35:17.180Z,12.47
2017-11-14T14:37:45.147Z,13.20
2017-11-14T14:40:13.117Z,12.60
2017-11-14T14:42:40.908Z,11.50
2017-11-14T14:45:08.434Z,12.47
2017-11-14T14:47:35.994Z,12.20
2017-11-14T14:50:03.533Z,12.00
2017-11-14T14:52:31.042Z,10.77
2017-11-14T14:54:58.667Z,11.10
2017-11-14T14:57:26.208Z,11.07
2017-11-14T14:59:53.739Z,10.80
2017-11-14T15:02:21.264Z,12.17
2017-11-14T15:04:48.778Z,12.73
2017-11-14T15:07:16.317Z,12.70
2017-11-14T15:09:43.820Z,10.90
2017-11-14T15:12:11.475Z,11.90
2017-11-14T15:14:39.011Z,12.50
2017-11-14T15:17:07.273Z,10.20
2017-11-14T15:19:35.579Z,10.93
2017-11-14T15:22:03.133Z,13.37
2017-11-14T15:24:30.695Z,11.87
2017-11-14T15:26:58.224Z,12.90
2017-11-14T15:29:26.508Z,13.40
2017-11-14T15:31:54.082Z,12.30
2017-11-14T15:34:21.578Z,14.90
2017-11-14T15:36:49.142Z,13.80
2017-11-14T15:39:16.658Z,12.63
2017-11-14T15:41:44.332Z,12.80
2017-11-14T15:44:11.889Z,12.57
2017-11-14T15:46:39.448Z,13.27
2017-11-14T15:49:07.005Z,13.93
2017-11-14T15:51:34.514Z,13.37
2017-11-14T15:54:02.039Z,12.97
2017-11-14T15:56:29.611Z,12.50
2017-11-14T15:58:57.166Z,12.57
2017-11-14T16:01:24.669Z,15.00
2017-11-14T16:03:52.978Z,13.23
2017-11-14T16:06:20.555Z,14.43
2017-11-14T16:08:48.113Z,16.00
2017-11-14T16:11:15.748Z,15.40
2017-11-14T16:13:43.299Z,16.10
2017-11-14T16:16:10.818Z,15.33
2017-11-14T16:18:38.450Z,13.00
2017-11-14T16:21:05.969Z,13.50
2017-11-14T16:23:33.528Z,13.40
2017-11-14T16:26:01.057Z,15.30
2017-11-14T16:28:29.360Z,17.20
2017-11-14T16:30:56.909Z,17.73
2017-11-14T16:33:24.441Z,19.57
2017-11-14T16:35:51.962Z,16.17
2017-11-14T16:38:19.492Z,15.67
2017-11-14T16:40:47.011Z,15.57
2017-11-14T16:43:14.803Z,20.80
2017-11-14T16:45:42.373Z,16.67
2017-11-14T16:48:09.910Z,17.47
2017-11-14T16:50:38.224Z,19.30
2017-11-14T16:53:05.801Z,19.33
2017-11-14T16:55:33.422Z,17.80
2017-11-14T16:58:00.952Z,18.20
2017-11-14T17:00:29.246Z,15.70
2017-11-14T17:02:57.551Z,16.40
2017-11-14T17:05:25.089Z,17.57
2017-11-14T17:07:52.619Z,16.43
2017-11-14T17:10:20.136Z,16.83
2017-11-14T17:12:47.714Z,16.50
2017-11-14T17:15:15.278Z,17.80
2017-11-14T17:17:42.787Z,16.50
2017-11-14T17:20:10.313Z,15.80
2017-11-14T17:22:38.595Z,16.87
2017-11-14T17:25:06.140Z,17.23
2017-11-14T17:27:33.673Z,18.80
2017-11-14T17:30:01.287Z,16.60
2017-11-14T17:32:28.787Z,17.40
2017-11-14T17:34:56.348Z,17.33
2017-11-14T17:37:23.851Z,15.80
2017-11-14T17:39:52.147Z,15.60
2017-11-14T17:42:19.680Z,17.73
2017-11-14T17:44:47.950Z,26.77
2017-11-14T17:47:16.255Z,18.90
2017-11-14T17:49:43.777Z,22.60
2017-11-14T17:52:11.370Z,20.33
2017-11-14T17:54:38.907Z,17.83
2017-11-14T17:57:07.195Z,19.90
2017-11-14T17:59:34.782Z,18.30
2017-11-14T18:02:02.342Z,17.10
2017-11-14T18:04:29.887Z,16.93
2017-11-14T18:06:57.409Z,15.27
2017-11-14T18:09:25.723Z,18.37
2017-11-14T18:11:53.254Z,15.30
2017-11-14T18:14:21.659Z,18.13
2017-11-14T18:16:49.219Z,18.03
2017-11-14T18:19:16.832Z,18.20
2017-11-14T18:21:44.374Z,17.77
2017-11-14T18:24:11.967Z,16.83
2017-11-14T18:26:40.270Z,17.80
2017-11-14T18:29:07.792Z,15.87
2017-11-14T18:31:36.223Z,18.97
2017-11-14T18:34:03.730Z,20.27
2017-11-14T18:36:32.031Z,17.23
2017-11-14T18:38:59.576Z,22.27
2017-11-14T18:41:27.165Z,18.57
2017-11-14T18:43:54.719Z,19.83
2017-11-14T18:46:22.239Z,20.20
2017-11-14T18:48:50.557Z,20.17
2017-11-14T18:51:18.111Z,17.80
2017-11-14T18:53:45.630Z,16.83
2017-11-14T18:56:13.958Z,19.07
2017-11-14T18:58:41.469Z,19.53
2017-11-14T19:01:09.778Z,19.73
2017-11-14T19:03:37.300Z,19.13
2017-11-14T19:06:05.598Z,17.40
2017-11-14T19:08:33.359Z,16.87
2017-11-14T19:11:00.893Z,17.60
2017-11-14T19:13:29.168Z,19.40
2017-11-14T19:15:57.500Z,19.10
2017-11-14T19:18:25.125Z,17.83
2017-11-14T19:20:52.685Z,19.90
2017-11-14T19:23:20.238Z,18.50
2017-11-14T19:25:47.750Z,18.00
2017-11-14T19:28:15.388Z,18.60
2017-11-14T19:30:42.903Z,19.57
2017-11-14T19:33:11.244Z,19.43
2017-11-14T19:35:40.703Z,20.23
2017-11-14T19:38:09.296Z,19.40
2017-11-14T19:40:37.494Z,20.53
2017-11-14T19:43:05.959Z,21.20
2017-11-14T19:45:33.742Z,20.93
2017-11-14T19:48:01.377Z,19.63
2017-11-14T19:50:29.242Z,18.77
2017-11-14T19:52:57.113Z,18.40
2017-11-14T19:55:24.893Z,19.50
2017-11-14T19:57:52.959Z,20.47
2017-11-14T20:00:20.815Z,18.10
2017-11-14T20:02:48.622Z,20.60
2017-11-14T20:05:16.545Z,20.63
2017-11-14T20:07:44.506Z,20.30
2017-11-14T20:10:12.481Z,18.70
2017-11-14T20:12:40.439Z,18.90
2017-11-14T20:15:08.410Z,20.40
2017-11-14T20:17:37.103Z,20.00
2017-11-14T20:20:05.072Z,22.17
2017-11-14T20:22:33.867Z,27.80
2017-11-14T20:25:02.535Z,18.50
2017-11-14T20:27:30.836Z,16.73
2017-11-14T20:29:59.923Z,24.30
2017-11-14T20:32:27.973Z,22.97
2017-11-14T20:34:55.942Z,21.43
2017-11-14T20:37:24.012Z,16.20
2017-11-14T20:39:52.014Z,18.80
2017-11-14T20:42:20.994Z,22.17
2017-11-14T20:44:49.026Z,20.20
2017-11-14T20:47:17.022Z,23.37
2017-11-14T20:49:45.799Z,17.97
2017-11-14T20:52:13.871Z,19.60
2017-11-14T20:54:41.950Z,20.90
2017-11-14T20:57:09.814Z,23.53
2017-11-14T20:59:39.432Z,26.13
2017-11-14T21:02:07.781Z,24.77
2017-11-14T21:04:35.480Z,22.87
2017-11-14T21:07:03.023Z,21.40
2017-11-14T21:09:30.578Z,22.90
2017-11-14T21:11:58.232Z,21.20
2017-11-14T21:14:25.813Z,23.40
2017-11-14T21:16:53.353Z,22.40
2017-11-14T21:19:21.027Z,21.83
2017-11-14T21:21:48.582Z,17.63
2017-11-14T21:24:16.167Z,15.07
2017-11-14T21:26:43.697Z,18.67
2017-11-14T21:29:11.451Z,19.20
2017-11-14T21:31:39.023Z,20.30
2017-11-14T21:34:06.559Z,18.53
2017-11-14T21:36:34.358Z,17.37
2017-11-14T21:39:01.887Z,17.60
2017-11-14T21:41:29.552Z,18.90
2017-11-14T21:43:57.110Z,15.27
2017-11-14T21:46:24.738Z,18.27
2017-11-14T21:48:52.429Z,19.17
2017-11-14T21:51:20.090Z,16.60
2017-11-14T21:53:47.781Z,18.57
2017-11-14T21:56:15.310Z,19.60
2017-11-14T21:58:42.851Z,17.33
2017-11-14T22:01:10.438Z,19.70
2017-11-14T22:03:37.948Z,15.40
2017-11-14T22:06:06.250Z,16.53
2017-11-14T22:08:33.798Z,16.90
2017-11-14T22:11:01.342Z,16.90
2017-11-14T22:13:29.698Z,18.07
2017-11-14T22:15:57.241Z,18.27
2017-11-14T22:18:24.757Z,16.50
2017-11-14T22:20:52.505Z,15.97
2017-11-14T22:23:20.040Z,15.67
2017-11-14T22:25:48.347Z,17.10
2017-11-14T22:28:16.009Z,17.10
2017-11-14T22:30:43.557Z,16.93
2017-11-14T22:33:11.149Z,14.33
2017-11-14T22:35:38.673Z,15.30
2017-11-14T22:38:06.349Z,18.40
2017-11-14T22:40:33.914Z,19.20
2017-11-14T22:43:01.457Z,20.53
2017-11-14T22:45:28.962Z,18.37
2017-11-14T22:47:56.502Z,15.20
2017-11-14T22:50:24.029Z,19.47
2017-11-14T22:52:51.549Z,17.77
2017-11-14T22:55:19.060Z,18.13
2017-11-14T22:57:46.610Z,17.20
2017-11-14T23:00:26.337Z,20.87
2017-11-14T23:02:54.630Z,20.67
2017-11-14T23:05:22.133Z,21.60
2017-11-14T23:07:49.665Z,17.60
2017-11-14T23:10:17.173Z,20.57
2017-11-14T23:12:45.471Z,19.13
2017-11-14T23:15:12.994Z,16.83
2017-11-14T23:17:40.531Z,20.40
2017-11-14T23:20:08.089Z,20.00
2017-11-14T23:22:35.646Z,19.67
2017-11-14T23:25:03.170Z,19.10
2017-11-14T23:27:30.670Z,25.17
2017-11-14T23:29:58.225Z,19.87
2017-11-14T23:32:25.749Z,19.90
2017-11-14T23:34:53.306Z,19.87
2017-11-14T23:37:20.850Z,20.23
2017-11-14T23:39:48.373Z,20.83
2017-11-14T23:42:16.684Z,18.77
2017-11-14T23:44:44.244Z,20.07
2017-11-14T23:47:11.778Z,21.47
2017-11-14T23:49:40.042Z,20.00
2017-11-14T23:52:08.351Z,16.90
2017-11-14T23:54:35.858Z,19.00
2017-11-14T23:57:03.498Z,18.40
2017-11-14T23:59:31.011Z,20.03
